sensor_id;sensor_type;location;lat;lon;timestamp;temperature;humidity
66831;DHT22;53739;44.224;22.528;2022-08-01T00:01:38;538.00;2252.80
66831;DHT22;53739;44.224;22.528;2022-08-01T00:04:04;538.00;2278.40
66831;DHT22;53739;44.224;22.528;2022-08-01T00:06:30;538.00;2278.40
66831;DHT22;53739;44.224;22.528;2022-08-01T00:08:56;538.10;2252.80
66831;DHT22;53739;44.224;22.528;2022-08-01T00:11:22;538.00;2278.40
66831;DHT22;53739;44.224;22.528;2022-08-01T00:13:48;538.10;2252.80
66831;DHT22;53739;44.224;22.528;2022-08-01T00:16:14;538.10;2252.80
66831;DHT22;53739;44.224;22.528;2022-08-01T00:18:41;538.10;2278.40
66831;DHT22;53739;44.224;22.528;2022-08-01T00:21:07;538.10;2252.80
66831;DHT22;53739;44.224;22.528;2022-08-01T00:23:33;538.00;2252.80
66831;DHT22;53739;44.224;22.528;2022-08-01T00:25:59;538.10;2252.80
66831;DHT22;53739;44.224;22.528;2022-08-01T00:28:25;538.00;2278.40
66831;DHT22;53739;44.224;22.528;2022-08-01T00:30:50;538.00;2252.80
66831;DHT22;53739;44.224;22.528;2022-08-01T00:33:16;538.00;2252.80
66831;DHT22;53739;44.224;22.528;2022-08-01T00:35:42;538.10;2278.40
66831;DHT22;53739;44.224;22.528;2022-08-01T00:38:08;538.00;2304.00
66831;DHT22;53739;44.224;22.528;2022-08-01T00:40:34;538.00;2252.80
66831;DHT22;53739;44.224;22.528;2022-08-01T00:42:59;537.90;2252.80
66831;DHT22;53739;44.224;22.528;2022-08-01T00:45:25;537.90;2278.40
66831;DHT22;53739;44.224;22.528;2022-08-01T00:47:51;537.90;2304.00
66831;DHT22;53739;44.224;22.528;2022-08-01T00:50:17;537.80;2252.80
66831;DHT22;53739;44.224;22.528;2022-08-01T00:52:43;537.70;2304.00
66831;DHT22;53739;44.224;22.528;2022-08-01T00:55:10;537.80;2304.00
66831;DHT22;53739;44.224;22.528;2022-08-01T00:57:38;537.80;2252.80
66831;DHT22;53739;44.224;22.528;2022-08-01T01:00:05;537.80;2252.80
66831;DHT22;53739;44.224;22.528;2022-08-01T01:02:32;537.70;2252.80
66831;DHT22;53739;44.224;22.528;2022-08-01T01:04:58;537.80;2252.80
66831;DHT22;53739;44.224;22.528;2022-08-01T01:12:44;537.80;2252.80
66831;DHT22;53739;44.224;22.528;2022-08-01T01:20:36;537.80;2252.80
66831;DHT22;53739;44.224;22.528;2022-08-01T01:30:52;537.60;2304.00
66831;DHT22;53739;44.224;22.528;2022-08-01T01:33:21;537.60;2278.40
66831;DHT22;53739;44.224;22.528;2022-08-01T01:35:52;537.70;2278.40
66831;DHT22;53739;44.224;22.528;2022-08-01T01:38:24;537.70;2278.40
66831;DHT22;53739;44.224;22.528;2022-08-01T01:40:52;537.70;2278.40
66831;DHT22;53739;44.224;22.528;2022-08-01T01:43:20;537.60;2278.40
66831;DHT22;53739;44.224;22.528;2022-08-01T01:45:49;512.90;2278.40
66831;DHT22;53739;44.224;22.528;2022-08-01T01:48:19;537.60;2304.00
66831;DHT22;53739;44.224;22.528;2022-08-01T01:50:47;512.90;2278.40
66831;DHT22;53739;44.224;22.528;2022-08-01T01:53:19;512.90;2252.80
66831;DHT22;53739;44.224;22.528;2022-08-01T01:55:48;512.90;2252.80
66831;DHT22;53739;44.224;22.528;2022-08-01T01:58:15;537.60;2278.40
66831;DHT22;53739;44.224;22.528;2022-08-01T02:00:44;537.70;2278.40
66831;DHT22;53739;44.224;22.528;2022-08-01T02:03:12;537.70;2227.20
66831;DHT22;53739;44.224;22.528;2022-08-01T02:05:38;537.70;2252.80
66831;DHT22;53739;44.224;22.528;2022-08-01T02:08:06;537.70;2252.80
66831;DHT22;53739;44.224;22.528;2022-08-01T02:10:34;537.80;2252.80
66831;DHT22;53739;44.224;22.528;2022-08-01T02:13:03;537.70;2252.80
66831;DHT22;53739;44.224;22.528;2022-08-01T02:15:31;537.70;2252.80
66831;DHT22;53739;44.224;22.528;2022-08-01T02:17:59;537.70;2278.40
66831;DHT22;53739;44.224;22.528;2022-08-01T02:20:30;537.60;2278.40
66831;DHT22;53739;44.224;22.528;2022-08-01T02:23:06;537.60;2278.40
66831;DHT22;53739;44.224;22.528;2022-08-01T02:25:53;512.90;2278.40
66831;DHT22;53739;44.224;22.528;2022-08-01T02:28:25;512.90;2252.80
66831;DHT22;53739;44.224;22.528;2022-08-01T02:30:54;512.90;2278.40
66831;DHT22;53739;44.224;22.528;2022-08-01T02:33:24;512.90;2278.40
66831;DHT22;53739;44.224;22.528;2022-08-01T02:35:56;512.80;2278.40
66831;DHT22;53739;44.224;22.528;2022-08-01T02:38:25;512.80;2252.80
66831;DHT22;53739;44.224;22.528;2022-08-01T02:40:53;512.80;2252.80
66831;DHT22;53739;44.224;22.528;2022-08-01T02:43:26;512.70;2252.80
66831;DHT22;53739;44.224;22.528;2022-08-01T02:45:58;512.70;2252.80
66831;DHT22;53739;44.224;22.528;2022-08-01T02:48:26;512.80;2278.40
66831;DHT22;53739;44.224;22.528;2022-08-01T02:50:54;512.70;2278.40
66831;DHT22;53739;44.224;22.528;2022-08-01T02:53:22;512.80;2252.80
66831;DHT22;53739;44.224;22.528;2022-08-01T02:55:49;512.80;2252.80
66831;DHT22;53739;44.224;22.528;2022-08-01T02:58:18;512.80;2252.80
66831;DHT22;53739;44.224;22.528;2022-08-01T03:00:45;512.80;2252.80
66831;DHT22;53739;44.224;22.528;2022-08-01T03:03:14;512.80;2227.20
66831;DHT22;53739;44.224;22.528;2022-08-01T03:05:41;512.90;2227.20
66831;DHT22;53739;44.224;22.528;2022-08-01T03:08:09;512.90;2201.60
66831;DHT22;53739;44.224;22.528;2022-08-01T03:10:40;512.90;2176.00
66831;DHT22;53739;44.224;22.528;2022-08-01T03:13:09;512.90;2201.60
66831;DHT22;53739;44.224;22.528;2022-08-01T03:15:38;512.90;2176.00
66831;DHT22;53739;44.224;22.528;2022-08-01T03:18:07;512.90;2176.00
66831;DHT22;53739;44.224;22.528;2022-08-01T03:20:34;512.90;2176.00
66831;DHT22;53739;44.224;22.528;2022-08-01T03:23:03;537.60;2201.60
66831;DHT22;53739;44.224;22.528;2022-08-01T03:25:31;537.60;2201.60
66831;DHT22;53739;44.224;22.528;2022-08-01T03:28:02;537.60;2176.00
66831;DHT22;53739;44.224;22.528;2022-08-01T03:30:29;537.60;2201.60
66831;DHT22;53739;44.224;22.528;2022-08-01T03:32:57;537.70;2201.60
66831;DHT22;53739;44.224;22.528;2022-08-01T03:35:27;537.70;2176.00
66831;DHT22;53739;44.224;22.528;2022-08-01T03:37:55;537.80;2176.00
66831;DHT22;53739;44.224;22.528;2022-08-01T03:40:25;537.80;2150.40
66831;DHT22;53739;44.224;22.528;2022-08-01T03:43:01;537.80;2176.00
66831;DHT22;53739;44.224;22.528;2022-08-01T03:45:35;537.80;2176.00
66831;DHT22;53739;44.224;22.528;2022-08-01T03:48:16;537.80;2176.00
66831;DHT22;53739;44.224;22.528;2022-08-01T03:50:46;537.80;2176.00
66831;DHT22;53739;44.224;22.528;2022-08-01T03:53:13;537.80;2176.00
66831;DHT22;53739;44.224;22.528;2022-08-01T03:55:41;537.80;2201.60
66831;DHT22;53739;44.224;22.528;2022-08-01T03:58:09;537.80;2176.00
66831;DHT22;53739;44.224;22.528;2022-08-01T04:00:37;537.80;2201.60
66831;DHT22;53739;44.224;22.528;2022-08-01T04:03:12;537.70;2227.20
66831;DHT22;53739;44.224;22.528;2022-08-01T04:05:41;537.70;2227.20
66831;DHT22;53739;44.224;22.528;2022-08-01T04:08:08;537.80;2227.20
66831;DHT22;53739;44.224;22.528;2022-08-01T04:10:34;537.80;2227.20
66831;DHT22;53739;44.224;22.528;2022-08-01T04:13:00;537.80;2201.60
66831;DHT22;53739;44.224;22.528;2022-08-01T04:15:26;538.00;2227.20
66831;DHT22;53739;44.224;22.528;2022-08-01T04:17:52;537.90;2227.20
66831;DHT22;53739;44.224;22.528;2022-08-01T04:20:20;537.90;2227.20
66831;DHT22;53739;44.224;22.528;2022-08-01T04:22:45;537.80;2201.60
66831;DHT22;53739;44.224;22.528;2022-08-01T04:25:19;537.80;2227.20
66831;DHT22;53739;44.224;22.528;2022-08-01T04:27:49;537.80;2252.80
66831;DHT22;53739;44.224;22.528;2022-08-01T04:30:18;537.80;2227.20
66831;DHT22;53739;44.224;22.528;2022-08-01T04:32:46;537.90;2252.80
66831;DHT22;53739;44.224;22.528;2022-08-01T04:35:16;538.00;2252.80
66831;DHT22;53739;44.224;22.528;2022-08-01T04:37:44;538.00;2252.80
66831;DHT22;53739;44.224;22.528;2022-08-01T04:40:11;538.00;2252.80
66831;DHT22;53739;44.224;22.528;2022-08-01T04:42:38;538.00;2252.80
66831;DHT22;53739;44.224;22.528;2022-08-01T04:45:04;538.00;2252.80
66831;DHT22;53739;44.224;22.528;2022-08-01T04:47:30;538.00;2252.80
66831;DHT22;53739;44.224;22.528;2022-08-01T04:49:57;538.00;2252.80
66831;DHT22;53739;44.224;22.528;2022-08-01T04:52:23;538.10;2252.80
66831;DHT22;53739;44.224;22.528;2022-08-01T04:54:48;538.20;2227.20
66831;DHT22;53739;44.224;22.528;2022-08-01T04:57:14;538.30;2252.80
66831;DHT22;53739;44.224;22.528;2022-08-01T04:59:43;538.30;2252.80
66831;DHT22;53739;44.224;22.528;2022-08-01T05:02:14;538.40;2227.20
66831;DHT22;53739;44.224;22.528;2022-08-01T05:04:41;538.40;2278.40
66831;DHT22;53739;44.224;22.528;2022-08-01T05:07:08;538.40;2227.20
66831;DHT22;53739;44.224;22.528;2022-08-01T05:09:35;538.40;2278.40
66831;DHT22;53739;44.224;22.528;2022-08-01T05:12:04;538.40;2278.40
66831;DHT22;53739;44.224;22.528;2022-08-01T05:14:32;538.40;2252.80
66831;DHT22;53739;44.224;22.528;2022-08-01T05:17:03;538.50;2252.80
66831;DHT22;53739;44.224;22.528;2022-08-01T05:19:30;538.50;2227.20
66831;DHT22;53739;44.224;22.528;2022-08-01T05:22:06;563.20;2278.40
66831;DHT22;53739;44.224;22.528;2022-08-01T05:24:33;563.30;2252.80
66831;DHT22;53739;44.224;22.528;2022-08-01T05:27:00;563.50;2278.40
66831;DHT22;53739;44.224;22.528;2022-08-01T05:29:26;563.60;2252.80
66831;DHT22;53739;44.224;22.528;2022-08-01T05:31:53;563.60;2252.80
66831;DHT22;53739;44.224;22.528;2022-08-01T05:34:19;563.60;2227.20
66831;DHT22;53739;44.224;22.528;2022-08-01T05:36:46;563.60;2227.20
66831;DHT22;53739;44.224;22.528;2022-08-01T05:39:13;563.60;2278.40
66831;DHT22;53739;44.224;22.528;2022-08-01T05:41:40;563.70;2278.40
66831;DHT22;53739;44.224;22.528;2022-08-01T05:44:06;563.90;2227.20
66831;DHT22;53739;44.224;22.528;2022-08-01T05:46:32;588.80;2227.20
66831;DHT22;53739;44.224;22.528;2022-08-01T05:49:03;589.00;2201.60
66831;DHT22;53739;44.224;22.528;2022-08-01T05:51:29;589.00;2227.20
66831;DHT22;53739;44.224;22.528;2022-08-01T05:53:55;589.10;2278.40
66831;DHT22;53739;44.224;22.528;2022-08-01T05:56:31;589.30;2227.20
66831;DHT22;53739;44.224;22.528;2022-08-01T05:58:56;589.60;2176.00
66831;DHT22;53739;44.224;22.528;2022-08-01T06:01:22;614.40;2201.60
66831;DHT22;53739;44.224;22.528;2022-08-01T06:03:51;614.50;2176.00
66831;DHT22;53739;44.224;22.528;2022-08-01T06:06:28;614.50;2099.20
66831;DHT22;53739;44.224;22.528;2022-08-01T06:08:54;614.60;2099.20
66831;DHT22;53739;44.224;22.528;2022-08-01T06:11:20;614.80;2150.40
66831;DHT22;53739;44.224;22.528;2022-08-01T06:13:46;615.10;2099.20
66831;DHT22;53739;44.224;22.528;2022-08-01T06:16:11;615.30;2099.20
66831;DHT22;53739;44.224;22.528;2022-08-01T06:18:37;640.00;2048.00
66831;DHT22;53739;44.224;22.528;2022-08-01T06:21:03;640.10;2073.60
66831;DHT22;53739;44.224;22.528;2022-08-01T06:23:29;640.00;2022.40
66831;DHT22;53739;44.224;22.528;2022-08-01T06:25:55;640.00;2022.40
66831;DHT22;53739;44.224;22.528;2022-08-01T06:28:21;640.10;2048.00
66831;DHT22;53739;44.224;22.528;2022-08-01T06:30:47;640.40;1996.80
66831;DHT22;53739;44.224;22.528;2022-08-01T06:33:13;640.40;2022.40
66831;DHT22;53739;44.224;22.528;2022-08-01T06:35:42;640.50;2022.40
66831;DHT22;53739;44.224;22.528;2022-08-01T06:38:08;640.70;2022.40
66831;DHT22;53739;44.224;22.528;2022-08-01T06:40:43;640.70;2022.40
66831;DHT22;53739;44.224;22.528;2022-08-01T06:43:09;640.90;1996.80
66831;DHT22;53739;44.224;22.528;2022-08-01T06:45:37;665.70;2048.00
66831;DHT22;53739;44.224;22.528;2022-08-01T06:48:03;666.10;2073.60
66831;DHT22;53739;44.224;22.528;2022-08-01T06:50:32;666.20;1971.20
66831;DHT22;53739;44.224;22.528;2022-08-01T06:53:01;666.20;1971.20
66831;DHT22;53739;44.224;22.528;2022-08-01T06:55:27;666.50;1996.80
66831;DHT22;53739;44.224;22.528;2022-08-01T06:57:53;666.50;1971.20
66831;DHT22;53739;44.224;22.528;2022-08-01T07:00:21;691.30;1996.80
66831;DHT22;53739;44.224;22.528;2022-08-01T07:02:49;691.60;1996.80
66831;DHT22;53739;44.224;22.528;2022-08-01T07:05:16;691.50;1971.20
66831;DHT22;53739;44.224;22.528;2022-08-01T07:07:42;691.60;1971.20
66831;DHT22;53739;44.224;22.528;2022-08-01T07:10:08;691.70;1996.80
66831;DHT22;53739;44.224;22.528;2022-08-01T07:12:35;691.90;1996.80
66831;DHT22;53739;44.224;22.528;2022-08-01T07:15:05;691.70;2022.40
66831;DHT22;53739;44.224;22.528;2022-08-01T07:17:33;691.90;1996.80
66831;DHT22;53739;44.224;22.528;2022-08-01T07:20:02;691.60;1996.80
66831;DHT22;53739;44.224;22.528;2022-08-01T07:22:27;691.40;2048.00
66831;DHT22;53739;44.224;22.528;2022-08-01T07:24:53;691.20;2022.40
66831;DHT22;53739;44.224;22.528;2022-08-01T07:27:22;691.30;2099.20
66831;DHT22;53739;44.224;22.528;2022-08-01T07:30:14;691.40;2048.00
66831;DHT22;53739;44.224;22.528;2022-08-01T07:32:40;691.60;2048.00
66831;DHT22;53739;44.224;22.528;2022-08-01T07:35:06;691.70;2048.00
66831;DHT22;53739;44.224;22.528;2022-08-01T07:37:32;691.70;2022.40
66831;DHT22;53739;44.224;22.528;2022-08-01T07:40:00;691.70;2022.40
66831;DHT22;53739;44.224;22.528;2022-08-01T07:42:30;691.60;2022.40
66831;DHT22;53739;44.224;22.528;2022-08-01T07:44:56;691.40;2048.00
66831;DHT22;53739;44.224;22.528;2022-08-01T07:47:26;691.30;2048.00
66831;DHT22;53739;44.224;22.528;2022-08-01T07:49:58;691.70;2048.00
66831;DHT22;53739;44.224;22.528;2022-08-01T07:52:24;691.80;2048.00
66831;DHT22;53739;44.224;22.528;2022-08-01T07:54:53;692.00;2048.00
66831;DHT22;53739;44.224;22.528;2022-08-01T07:57:22;716.80;2048.00
66831;DHT22;53739;44.224;22.528;2022-08-01T07:59:47;692.10;2022.40
66831;DHT22;53739;44.224;22.528;2022-08-01T08:02:13;716.80;2048.00
66831;DHT22;53739;44.224;22.528;2022-08-01T08:04:39;717.10;2048.00
66831;DHT22;53739;44.224;22.528;2022-08-01T08:07:05;717.00;2048.00
66831;DHT22;53739;44.224;22.528;2022-08-01T08:09:31;717.10;1996.80
66831;DHT22;53739;44.224;22.528;2022-08-01T08:11:56;717.30;1971.20
66831;DHT22;53739;44.224;22.528;2022-08-01T08:14:22;717.40;1971.20
66831;DHT22;53739;44.224;22.528;2022-08-01T08:16:52;717.30;1996.80
66831;DHT22;53739;44.224;22.528;2022-08-01T08:19:21;717.40;1971.20
66831;DHT22;53739;44.224;22.528;2022-08-01T08:21:47;717.50;2048.00
66831;DHT22;53739;44.224;22.528;2022-08-01T08:24:18;717.50;1971.20
66831;DHT22;53739;44.224;22.528;2022-08-01T08:26:55;717.50;1971.20
66831;DHT22;53739;44.224;22.528;2022-08-01T08:29:24;717.40;1945.60
66831;DHT22;53739;44.224;22.528;2022-08-01T08:31:55;717.50;1971.20
66831;DHT22;53739;44.224;22.528;2022-08-01T08:34:21;717.60;1971.20
66831;DHT22;53739;44.224;22.528;2022-08-01T08:36:47;717.30;1920.00
66831;DHT22;53739;44.224;22.528;2022-08-01T08:39:14;717.30;1945.60
66831;DHT22;53739;44.224;22.528;2022-08-01T08:41:40;717.40;1971.20
66831;DHT22;53739;44.224;22.528;2022-08-01T08:44:08;717.70;1945.60
66831;DHT22;53739;44.224;22.528;2022-08-01T08:46:41;717.50;1945.60
66831;DHT22;53739;44.224;22.528;2022-08-01T08:49:08;717.50;1971.20
66831;DHT22;53739;44.224;22.528;2022-08-01T08:51:39;717.50;1971.20
66831;DHT22;53739;44.224;22.528;2022-08-01T08:54:07;717.50;1945.60
66831;DHT22;53739;44.224;22.528;2022-08-01T08:56:34;717.60;1945.60
66831;DHT22;53739;44.224;22.528;2022-08-01T08:59:02;717.70;1945.60
66831;DHT22;53739;44.224;22.528;2022-08-01T09:01:28;742.40;1971.20
66831;DHT22;53739;44.224;22.528;2022-08-01T09:03:54;717.60;1920.00
66831;DHT22;53739;44.224;22.528;2022-08-01T09:06:20;742.50;1971.20
66831;DHT22;53739;44.224;22.528;2022-08-01T09:08:46;742.60;2022.40
66831;DHT22;53739;44.224;22.528;2022-08-01T09:11:12;742.80;1945.60
66831;DHT22;53739;44.224;22.528;2022-08-01T09:14:13;742.80;1920.00
66831;DHT22;53739;44.224;22.528;2022-08-01T09:16:44;742.90;1920.00
66831;DHT22;53739;44.224;22.528;2022-08-01T09:19:20;743.10;1920.00
66831;DHT22;53739;44.224;22.528;2022-08-01T09:22:01;742.90;1894.40
66831;DHT22;53739;44.224;22.528;2022-08-01T09:24:31;742.80;1920.00
66831;DHT22;53739;44.224;22.528;2022-08-01T09:26:58;742.70;1971.20
66831;DHT22;53739;44.224;22.528;2022-08-01T09:29:26;742.90;1971.20
66831;DHT22;53739;44.224;22.528;2022-08-01T09:31:56;742.90;1920.00
66831;DHT22;53739;44.224;22.528;2022-08-01T09:34:28;742.90;1894.40
66831;DHT22;53739;44.224;22.528;2022-08-01T09:37:00;742.80;1894.40
66831;DHT22;53739;44.224;22.528;2022-08-01T09:39:40;742.90;1945.60
66831;DHT22;53739;44.224;22.528;2022-08-01T09:42:21;742.90;1868.80
66831;DHT22;53739;44.224;22.528;2022-08-01T09:44:48;742.80;1920.00
66831;DHT22;53739;44.224;22.528;2022-08-01T09:47:14;743.00;1894.40
66831;DHT22;53739;44.224;22.528;2022-08-01T09:49:42;743.10;1945.60
66831;DHT22;53739;44.224;22.528;2022-08-01T09:55:05;743.00;1920.00
66831;DHT22;53739;44.224;22.528;2022-08-01T09:57:31;743.10;1945.60
66831;DHT22;53739;44.224;22.528;2022-08-01T09:59:59;743.20;1971.20
66831;DHT22;53739;44.224;22.528;2022-08-01T10:02:33;768.00;1945.60
66831;DHT22;53739;44.224;22.528;2022-08-01T10:05:07;768.40;1945.60
66831;DHT22;53739;44.224;22.528;2022-08-01T10:07:34;768.50;1868.80
66831;DHT22;53739;44.224;22.528;2022-08-01T10:10:30;768.70;1894.40
66831;DHT22;53739;44.224;22.528;2022-08-01T10:12:58;768.90;1868.80
66831;DHT22;53739;44.224;22.528;2022-08-01T10:15:26;768.90;1945.60
66831;DHT22;53739;44.224;22.528;2022-08-01T10:18:00;768.90;1894.40
66831;DHT22;53739;44.224;22.528;2022-08-01T10:20:29;768.90;1868.80
66831;DHT22;53739;44.224;22.528;2022-08-01T10:23:01;768.50;1843.20
66831;DHT22;53739;44.224;22.528;2022-08-01T10:25:35;768.40;1868.80
66831;DHT22;53739;44.224;22.528;2022-08-01T10:28:15;768.60;1868.80
66831;DHT22;53739;44.224;22.528;2022-08-01T10:30:52;768.40;1868.80
66831;DHT22;53739;44.224;22.528;2022-08-01T10:33:27;768.60;1868.80
66831;DHT22;53739;44.224;22.528;2022-08-01T10:36:02;768.70;1868.80
66831;DHT22;53739;44.224;22.528;2022-08-01T10:38:35;768.60;1817.60
66831;DHT22;53739;44.224;22.528;2022-08-01T10:41:33;768.90;1843.20
66831;DHT22;53739;44.224;22.528;2022-08-01T10:44:01;793.70;1843.20
66831;DHT22;53739;44.224;22.528;2022-08-01T10:50:04;793.60;1843.20
66831;DHT22;53739;44.224;22.528;2022-08-01T10:52:32;768.90;1817.60
66831;DHT22;53739;44.224;22.528;2022-08-01T10:55:05;793.60;1843.20
66831;DHT22;53739;44.224;22.528;2022-08-01T10:57:42;793.70;1817.60
66831;DHT22;53739;44.224;22.528;2022-08-01T11:00:08;768.90;1792.00
66831;DHT22;53739;44.224;22.528;2022-08-01T11:02:34;793.60;1868.80
66831;DHT22;53739;44.224;22.528;2022-08-01T11:05:20;793.70;1817.60
66831;DHT22;53739;44.224;22.528;2022-08-01T11:07:56;793.60;1817.60
66831;DHT22;53739;44.224;22.528;2022-08-01T11:10:41;768.90;1817.60
66831;DHT22;53739;44.224;22.528;2022-08-01T11:13:12;768.70;1792.00
66831;DHT22;53739;44.224;22.528;2022-08-01T11:15:44;768.60;1817.60
66831;DHT22;53739;44.224;22.528;2022-08-01T11:18:29;768.50;1766.40
66831;DHT22;53739;44.224;22.528;2022-08-01T11:21:00;768.90;1817.60
66831;DHT22;53739;44.224;22.528;2022-08-01T11:24:00;793.70;1817.60
66831;DHT22;53739;44.224;22.528;2022-08-01T11:26:23;794.00;1792.00
66831;DHT22;53739;44.224;22.528;2022-08-01T11:29:17;793.90;1792.00
66831;DHT22;53739;44.224;22.528;2022-08-01T11:31:43;794.20;1792.00
66831;DHT22;53739;44.224;22.528;2022-08-01T11:34:51;793.70;1843.20
66831;DHT22;53739;44.224;22.528;2022-08-01T11:37:35;793.70;1843.20
66831;DHT22;53739;44.224;22.528;2022-08-01T11:40:20;793.70;1817.60
66831;DHT22;53739;44.224;22.528;2022-08-01T11:45:57;793.80;1945.60
66831;DHT22;53739;44.224;22.528;2022-08-01T11:48:27;793.70;1792.00
66831;DHT22;53739;44.224;22.528;2022-08-01T11:50:57;794.00;1792.00
66831;DHT22;53739;44.224;22.528;2022-08-01T11:53:26;794.40;1894.40
66831;DHT22;53739;44.224;22.528;2022-08-01T11:55:53;794.50;1843.20
66831;DHT22;53739;44.224;22.528;2022-08-01T11:58:26;794.20;1817.60
66831;DHT22;53739;44.224;22.528;2022-08-01T12:01:12;794.00;1740.80
66831;DHT22;53739;44.224;22.528;2022-08-01T12:03:41;794.00;1740.80
66831;DHT22;53739;44.224;22.528;2022-08-01T12:06:07;793.80;1868.80
66831;DHT22;53739;44.224;22.528;2022-08-01T12:08:33;794.00;1817.60
66831;DHT22;53739;44.224;22.528;2022-08-01T12:14:58;794.00;1817.60
66831;DHT22;53739;44.224;22.528;2022-08-01T12:17:39;794.10;1766.40
66831;DHT22;53739;44.224;22.528;2022-08-01T12:20:10;794.00;1740.80
66831;DHT22;53739;44.224;22.528;2022-08-01T12:22:45;793.70;1792.00
66831;DHT22;53739;44.224;22.528;2022-08-01T12:28:39;793.70;1766.40
66831;DHT22;53739;44.224;22.528;2022-08-01T12:31:06;793.80;1740.80
66831;DHT22;53739;44.224;22.528;2022-08-01T12:33:34;793.70;1792.00
66831;DHT22;53739;44.224;22.528;2022-08-01T12:36:12;794.10;1817.60
66831;DHT22;53739;44.224;22.528;2022-08-01T12:38:51;794.00;1766.40
66831;DHT22;53739;44.224;22.528;2022-08-01T12:41:17;793.70;1740.80
66831;DHT22;53739;44.224;22.528;2022-08-01T12:43:43;793.60;1766.40
66831;DHT22;53739;44.224;22.528;2022-08-01T12:46:09;768.90;1715.20
66831;DHT22;53739;44.224;22.528;2022-08-01T12:48:41;768.90;1715.20
66831;DHT22;53739;44.224;22.528;2022-08-01T12:51:10;793.60;1740.80
66831;DHT22;53739;44.224;22.528;2022-08-01T12:53:37;768.90;1689.60
66831;DHT22;53739;44.224;22.528;2022-08-01T12:56:06;768.90;1740.80
66831;DHT22;53739;44.224;22.528;2022-08-01T12:58:35;768.90;1740.80
66831;DHT22;53739;44.224;22.528;2022-08-01T13:01:06;793.70;1792.00
66831;DHT22;53739;44.224;22.528;2022-08-01T13:03:35;793.70;1766.40
66831;DHT22;53739;44.224;22.528;2022-08-01T13:06:19;793.80;1766.40
66831;DHT22;53739;44.224;22.528;2022-08-01T13:08:53;793.70;1792.00
66831;DHT22;53739;44.224;22.528;2022-08-01T13:11:45;768.90;1792.00
66831;DHT22;53739;44.224;22.528;2022-08-01T13:21:18;793.80;1792.00
66831;DHT22;53739;44.224;22.528;2022-08-01T13:24:15;793.80;1766.40
66831;DHT22;53739;44.224;22.528;2022-08-01T13:26:52;793.60;1766.40
66831;DHT22;53739;44.224;22.528;2022-08-01T13:29:35;768.90;1740.80
66831;DHT22;53739;44.224;22.528;2022-08-01T13:34:46;768.70;1766.40
66831;DHT22;53739;44.224;22.528;2022-08-01T13:37:23;768.90;1740.80
66831;DHT22;53739;44.224;22.528;2022-08-01T13:39:49;768.70;1740.80
66831;DHT22;53739;44.224;22.528;2022-08-01T13:42:19;768.90;1792.00
66831;DHT22;53739;44.224;22.528;2022-08-01T13:44:47;768.90;1766.40
66831;DHT22;53739;44.224;22.528;2022-08-01T13:47:19;768.90;1792.00
66831;DHT22;53739;44.224;22.528;2022-08-01T13:49:50;793.70;1868.80
66831;DHT22;53739;44.224;22.528;2022-08-01T13:52:16;793.70;1766.40
66831;DHT22;53739;44.224;22.528;2022-08-01T13:55:03;793.60;1792.00
66831;DHT22;53739;44.224;22.528;2022-08-01T14:01:21;768.90;1766.40
66831;DHT22;53739;44.224;22.528;2022-08-01T14:03:51;768.80;1740.80
66831;DHT22;53739;44.224;22.528;2022-08-01T14:06:20;768.60;1766.40
66831;DHT22;53739;44.224;22.528;2022-08-01T14:08:48;768.50;1792.00
66831;DHT22;53739;44.224;22.528;2022-08-01T14:11:14;768.40;1766.40
66831;DHT22;53739;44.224;22.528;2022-08-01T14:13:55;768.40;1766.40
66831;DHT22;53739;44.224;22.528;2022-08-01T14:16:36;768.60;1792.00
66831;DHT22;53739;44.224;22.528;2022-08-01T14:28:52;768.40;1740.80
66831;DHT22;53739;44.224;22.528;2022-08-01T14:31:18;768.50;1792.00
66831;DHT22;53739;44.224;22.528;2022-08-01T14:40:38;768.50;1817.60
66831;DHT22;53739;44.224;22.528;2022-08-01T14:43:04;768.40;1740.80
66831;DHT22;53739;44.224;22.528;2022-08-01T14:45:30;768.50;1817.60
66831;DHT22;53739;44.224;22.528;2022-08-01T14:47:56;768.60;1817.60
66831;DHT22;53739;44.224;22.528;2022-08-01T14:50:22;768.60;1792.00
66831;DHT22;53739;44.224;22.528;2022-08-01T14:52:49;768.50;1740.80
66831;DHT22;53739;44.224;22.528;2022-08-01T14:58:37;768.40;1766.40
66831;DHT22;53739;44.224;22.528;2022-08-01T15:01:16;768.40;1843.20
66831;DHT22;53739;44.224;22.528;2022-08-01T15:03:48;768.10;1766.40
66831;DHT22;53739;44.224;22.528;2022-08-01T15:06:18;768.10;1792.00
66831;DHT22;53739;44.224;22.528;2022-08-01T15:08:53;768.30;1817.60
66831;DHT22;53739;44.224;22.528;2022-08-01T15:11:19;768.30;1792.00
66831;DHT22;53739;44.224;22.528;2022-08-01T15:13:48;768.30;1843.20
66831;DHT22;53739;44.224;22.528;2022-08-01T15:16:34;768.40;1817.60
66831;DHT22;53739;44.224;22.528;2022-08-01T15:19:09;743.30;1817.60
66831;DHT22;53739;44.224;22.528;2022-08-01T15:21:38;768.00;1817.60
66831;DHT22;53739;44.224;22.528;2022-08-01T15:24:04;743.30;1792.00
66831;DHT22;53739;44.224;22.528;2022-08-01T15:26:34;743.20;1868.80
66831;DHT22;53739;44.224;22.528;2022-08-01T15:29:00;743.10;1817.60
66831;DHT22;53739;44.224;22.528;2022-08-01T15:31:30;743.10;1792.00
66831;DHT22;53739;44.224;22.528;2022-08-01T15:33:59;743.10;1817.60
66831;DHT22;53739;44.224;22.528;2022-08-01T15:42:50;743.10;1843.20
66831;DHT22;53739;44.224;22.528;2022-08-01T15:45:17;743.10;1843.20
66831;DHT22;53739;44.224;22.528;2022-08-01T15:47:46;743.10;1792.00
66831;DHT22;53739;44.224;22.528;2022-08-01T15:50:16;742.90;1792.00
66831;DHT22;53739;44.224;22.528;2022-08-01T15:52:45;742.70;1817.60
66831;DHT22;53739;44.224;22.528;2022-08-01T15:55:11;742.60;1817.60
66831;DHT22;53739;44.224;22.528;2022-08-01T15:57:37;742.60;1817.60
66831;DHT22;53739;44.224;22.528;2022-08-01T16:00:07;742.50;1792.00
66831;DHT22;53739;44.224;22.528;2022-08-01T16:02:33;742.40;1817.60
66831;DHT22;53739;44.224;22.528;2022-08-01T16:05:02;742.40;1817.60
66831;DHT22;53739;44.224;22.528;2022-08-01T16:07:40;717.70;1792.00